sensor_id;sensor_type;location;lat;lon;timestamp;P1;durP1;ratioP1;P2;durP2;ratioP2
67063;SDS011;58476;48.072;11.970;2022-09-03T00:02:01;1.20;;;1.10;;
67063;SDS011;58476;48.072;11.970;2022-09-03T00:07:29;1.92;;;1.10;;
67063;SDS011;58476;48.072;11.970;2022-09-03T00:10:04;1.65;;;1.10;;
67063;SDS011;58476;48.072;11.970;2022-09-03T00:12:35;1.92;;;1.00;;
67063;SDS011;58476;48.072;11.970;2022-09-03T00:15:07;1.05;;;1.00;;
67063;SDS011;58476;48.072;11.970;2022-09-03T00:17:40;1.98;;;1.50;;
67063;SDS011;58476;48.072;11.970;2022-09-03T00:23:03;1.30;;;1.20;;
67063;SDS011;58476;48.072;11.970;2022-09-03T00:25:44;1.35;;;1.05;;
67063;SDS011;58476;48.072;11.970;2022-09-03T00:28:15;1.17;;;1.10;;
67063;SDS011;58476;48.072;11.970;2022-09-03T00:30:44;1.13;;;1.05;;
67063;SDS011;58476;48.072;11.970;2022-09-03T00:33:17;1.75;;;1.10;;
67063;SDS011;58476;48.072;11.970;2022-09-03T00:35:50;1.02;;;1.00;;
67063;SDS011;58476;48.072;11.970;2022-09-03T00:38:21;1.00;;;1.00;;
67063;SDS011;58476;48.072;11.970;2022-09-03T00:43:43;1.05;;;1.05;;
67063;SDS011;58476;48.072;11.970;2022-09-03T00:46:41;1.10;;;1.00;;
67063;SDS011;58476;48.072;11.970;2022-09-03T00:49:23;1.02;;;1.02;;
67063;SDS011;58476;48.072;11.970;2022-09-03T00:51:50;1.90;;;1.10;;
67063;SDS011;58476;48.072;11.970;2022-09-03T00:57:05;1.07;;;1.03;;
67063;SDS011;58476;48.072;11.970;2022-09-03T01:05:00;1.40;;;1.23;;
67063;SDS011;58476;48.072;11.970;2022-09-03T01:07:46;2.67;;;1.00;;
67063;SDS011;58476;48.072;11.970;2022-09-03T01:13:14;1.10;;;1.10;;
67063;SDS011;58476;48.072;11.970;2022-09-03T01:15:56;1.08;;;1.00;;
67063;SDS011;58476;48.072;11.970;2022-09-03T01:30:21;1.20;;;1.10;;
67063;SDS011;58476;48.072;11.970;2022-09-03T01:32:52;1.52;;;1.30;;
67063;SDS011;58476;48.072;11.970;2022-09-03T01:35:32;1.00;;;1.00;;
67063;SDS011;58476;48.072;11.970;2022-09-03T01:40:58;1.45;;;1.35;;
67063;SDS011;58476;48.072;11.970;2022-09-03T01:43:49;1.40;;;1.20;;
67063;SDS011;58476;48.072;11.970;2022-09-03T01:46:25;1.10;;;1.00;;
67063;SDS011;58476;48.072;11.970;2022-09-03T01:49:05;1.20;;;1.10;;
67063;SDS011;58476;48.072;11.970;2022-09-03T01:51:41;1.85;;;1.20;;
67063;SDS011;58476;48.072;11.970;2022-09-03T01:59:53;1.42;;;1.10;;
67063;SDS011;58476;48.072;11.970;2022-09-03T02:02:25;0.88;;;0.82;;
67063;SDS011;58476;48.072;11.970;2022-09-03T02:04:59;1.25;;;1.15;;
67063;SDS011;58476;48.072;11.970;2022-09-03T02:07:27;1.25;;;1.20;;
67063;SDS011;58476;48.072;11.970;2022-09-03T02:09:55;3.45;;;1.20;;
67063;SDS011;58476;48.072;11.970;2022-09-03T02:12:21;1.30;;;1.20;;
67063;SDS011;58476;48.072;11.970;2022-09-03T02:14:46;1.20;;;1.10;;
67063;SDS011;58476;48.072;11.970;2022-09-03T02:17:11;1.20;;;1.10;;
67063;SDS011;58476;48.072;11.970;2022-09-03T02:19:37;1.30;;;1.20;;
67063;SDS011;58476;48.072;11.970;2022-09-03T02:22:03;1.10;;;1.10;;
67063;SDS011;58476;48.072;11.970;2022-09-03T02:24:29;1.20;;;1.20;;
67063;SDS011;58476;48.072;11.970;2022-09-03T02:26:54;1.40;;;1.30;;
67063;SDS011;58476;48.072;11.970;2022-09-03T02:29:20;1.30;;;1.20;;
67063;SDS011;58476;48.072;11.970;2022-09-03T02:31:46;1.40;;;1.30;;
67063;SDS011;58476;48.072;11.970;2022-09-03T02:34:11;2.72;;;1.40;;
67063;SDS011;58476;48.072;11.970;2022-09-03T02:36:41;1.30;;;1.13;;
67063;SDS011;58476;48.072;11.970;2022-09-03T02:39:08;1.70;;;1.20;;
67063;SDS011;58476;48.072;11.970;2022-09-03T02:41:33;1.20;;;1.10;;
67063;SDS011;58476;48.072;11.970;2022-09-03T02:44:03;1.92;;;1.25;;
67063;SDS011;58476;48.072;11.970;2022-09-03T02:46:40;1.23;;;1.13;;
67063;SDS011;58476;48.072;11.970;2022-09-03T02:49:18;1.38;;;1.20;;
67063;SDS011;58476;48.072;11.970;2022-09-03T02:51:43;1.52;;;1.27;;
67063;SDS011;58476;48.072;11.970;2022-09-03T02:54:09;1.33;;;1.13;;
67063;SDS011;58476;48.072;11.970;2022-09-03T02:56:36;1.17;;;1.17;;
67063;SDS011;58476;48.072;11.970;2022-09-03T02:59:03;1.30;;;1.20;;
67063;SDS011;58476;48.072;11.970;2022-09-03T03:01:30;1.23;;;1.13;;
67063;SDS011;58476;48.072;11.970;2022-09-03T03:03:55;1.27;;;1.20;;
67063;SDS011;58476;48.072;11.970;2022-09-03T03:06:21;1.60;;;1.30;;
67063;SDS011;58476;48.072;11.970;2022-09-03T03:08:47;1.13;;;1.10;;
67063;SDS011;58476;48.072;11.970;2022-09-03T03:11:13;1.38;;;1.27;;
67063;SDS011;58476;48.072;11.970;2022-09-03T03:13:38;1.58;;;1.25;;
67063;SDS011;58476;48.072;11.970;2022-09-03T03:16:04;1.13;;;1.13;;
67063;SDS011;58476;48.072;11.970;2022-09-03T03:18:29;1.35;;;1.08;;
67063;SDS011;58476;48.072;11.970;2022-09-03T03:20:55;1.00;;;1.00;;
67063;SDS011;58476;48.072;11.970;2022-09-03T03:23:20;1.40;;;1.30;;
67063;SDS011;58476;48.072;11.970;2022-09-03T03:25:46;1.73;;;1.20;;
67063;SDS011;58476;48.072;11.970;2022-09-03T03:28:11;1.13;;;1.13;;
67063;SDS011;58476;48.072;11.970;2022-09-03T03:30:37;1.30;;;1.20;;
67063;SDS011;58476;48.072;11.970;2022-09-03T03:33:02;1.20;;;1.15;;
67063;SDS011;58476;48.072;11.970;2022-09-03T03:35:28;1.25;;;1.15;;
67063;SDS011;58476;48.072;11.970;2022-09-03T03:37:53;1.27;;;1.17;;
67063;SDS011;58476;48.072;11.970;2022-09-03T03:40:18;1.33;;;1.23;;
67063;SDS011;58476;48.072;11.970;2022-09-03T03:42:44;1.27;;;1.17;;
67063;SDS011;58476;48.072;11.970;2022-09-03T03:45:09;1.23;;;1.15;;
67063;SDS011;58476;48.072;11.970;2022-09-03T03:47:35;1.42;;;1.20;;
67063;SDS011;58476;48.072;11.970;2022-09-03T03:50:02;1.45;;;1.13;;
67063;SDS011;58476;48.072;11.970;2022-09-03T03:52:28;2.45;;;1.20;;
67063;SDS011;58476;48.072;11.970;2022-09-03T03:54:53;1.38;;;1.10;;
67063;SDS011;58476;48.072;11.970;2022-09-03T03:57:19;1.55;;;1.10;;
67063;SDS011;58476;48.072;11.970;2022-09-03T03:59:45;1.30;;;1.20;;
67063;SDS011;58476;48.072;11.970;2022-09-03T04:02:14;1.30;;;1.20;;
67063;SDS011;58476;48.072;11.970;2022-09-03T04:04:40;1.27;;;1.17;;
67063;SDS011;58476;48.072;11.970;2022-09-03T04:07:06;1.13;;;1.02;;
67063;SDS011;58476;48.072;11.970;2022-09-03T04:09:32;1.38;;;1.30;;
67063;SDS011;58476;48.072;11.970;2022-09-03T04:11:57;1.00;;;1.00;;
67063;SDS011;58476;48.072;11.970;2022-09-03T04:14:23;0.90;;;0.90;;
67063;SDS011;58476;48.072;11.970;2022-09-03T04:16:49;1.17;;;1.10;;
67063;SDS011;58476;48.072;11.970;2022-09-03T04:19:14;1.20;;;1.10;;
67063;SDS011;58476;48.072;11.970;2022-09-03T04:21:39;1.30;;;1.20;;
67063;SDS011;58476;48.072;11.970;2022-09-03T04:24:05;1.30;;;1.20;;
67063;SDS011;58476;48.072;11.970;2022-09-03T04:26:31;1.40;;;1.30;;
67063;SDS011;58476;48.072;11.970;2022-09-03T04:28:58;1.00;;;1.00;;
67063;SDS011;58476;48.072;11.970;2022-09-03T04:31:24;1.15;;;1.10;;
67063;SDS011;58476;48.072;11.970;2022-09-03T04:33:49;1.30;;;1.20;;
67063;SDS011;58476;48.072;11.970;2022-09-03T04:36:19;1.55;;;1.00;;
67063;SDS011;58476;48.072;11.970;2022-09-03T04:38:46;0.98;;;0.98;;
67063;SDS011;58476;48.072;11.970;2022-09-03T04:41:15;1.10;;;1.10;;
67063;SDS011;58476;48.072;11.970;2022-09-03T04:43:43;1.20;;;1.15;;
67063;SDS011;58476;48.072;11.970;2022-09-03T04:46:10;1.00;;;1.00;;
67063;SDS011;58476;48.072;11.970;2022-09-03T04:48:37;1.48;;;1.23;;
67063;SDS011;58476;48.072;11.970;2022-09-03T04:51:07;1.30;;;1.20;;
67063;SDS011;58476;48.072;11.970;2022-09-03T04:53:35;4.43;;;2.08;;
67063;SDS011;58476;48.072;11.970;2022-09-03T04:58:43;3.05;;;1.23;;
67063;SDS011;58476;48.072;11.970;2022-09-03T05:01:10;1.27;;;1.17;;
67063;SDS011;58476;48.072;11.970;2022-09-03T05:03:38;3.05;;;1.20;;
67063;SDS011;58476;48.072;11.970;2022-09-03T05:06:04;1.50;;;1.17;;
67063;SDS011;58476;48.072;11.970;2022-09-03T05:08:29;2.20;;;1.40;;
67063;SDS011;58476;48.072;11.970;2022-09-03T05:10:58;4.10;;;1.13;;
67063;SDS011;58476;48.072;11.970;2022-09-03T05:13:23;2.63;;;1.38;;
67063;SDS011;58476;48.072;11.970;2022-09-03T05:15:49;3.00;;;1.27;;
67063;SDS011;58476;48.072;11.970;2022-09-03T05:18:14;2.45;;;1.20;;
67063;SDS011;58476;48.072;11.970;2022-09-03T05:20:39;2.45;;;1.30;;
67063;SDS011;58476;48.072;11.970;2022-09-03T05:23:05;2.47;;;2.03;;
67063;SDS011;58476;48.072;11.970;2022-09-03T05:25:30;3.55;;;1.40;;
67063;SDS011;58476;48.072;11.970;2022-09-03T05:27:56;3.42;;;1.33;;
67063;SDS011;58476;48.072;11.970;2022-09-03T05:30:21;3.25;;;1.30;;
67063;SDS011;58476;48.072;11.970;2022-09-03T05:32:47;2.65;;;1.30;;
67063;SDS011;58476;48.072;11.970;2022-09-03T05:35:13;5.20;;;1.27;;
67063;SDS011;58476;48.072;11.970;2022-09-03T05:37:38;4.15;;;1.35;;
67063;SDS011;58476;48.072;11.970;2022-09-03T05:40:03;3.88;;;1.40;;
67063;SDS011;58476;48.072;11.970;2022-09-03T05:42:29;5.32;;;1.20;;
67063;SDS011;58476;48.072;11.970;2022-09-03T05:44:55;12.30;;;1.60;;
67063;SDS011;58476;48.072;11.970;2022-09-03T05:47:20;3.90;;;1.38;;
67063;SDS011;58476;48.072;11.970;2022-09-03T05:49:45;3.50;;;1.38;;
67063;SDS011;58476;48.072;11.970;2022-09-03T05:52:11;9.77;;;1.15;;
67063;SDS011;58476;48.072;11.970;2022-09-03T05:54:36;7.30;;;1.33;;
67063;SDS011;58476;48.072;11.970;2022-09-03T05:57:01;4.35;;;1.20;;
67063;SDS011;58476;48.072;11.970;2022-09-03T05:59:27;2.83;;;1.50;;
67063;SDS011;58476;48.072;11.970;2022-09-03T06:01:52;6.70;;;1.25;;
67063;SDS011;58476;48.072;11.970;2022-09-03T06:04:18;5.47;;;1.70;;
67063;SDS011;58476;48.072;11.970;2022-09-03T06:06:44;10.27;;;1.60;;
67063;SDS011;58476;48.072;11.970;2022-09-03T06:09:17;7.00;;;2.00;;
67063;SDS011;58476;48.072;11.970;2022-09-03T06:11:44;5.22;;;1.70;;
67063;SDS011;58476;48.072;11.970;2022-09-03T06:14:12;4.38;;;1.50;;
67063;SDS011;58476;48.072;11.970;2022-09-03T06:16:43;14.93;;;1.50;;
67063;SDS011;58476;48.072;11.970;2022-09-03T06:19:10;3.08;;;1.30;;
67063;SDS011;58476;48.072;11.970;2022-09-03T06:21:36;5.55;;;1.63;;
67063;SDS011;58476;48.072;11.970;2022-09-03T06:24:02;13.52;;;2.53;;
67063;SDS011;58476;48.072;11.970;2022-09-03T06:26:28;3.80;;;1.65;;
67063;SDS011;58476;48.072;11.970;2022-09-03T06:28:53;7.18;;;1.50;;
67063;SDS011;58476;48.072;11.970;2022-09-03T06:31:19;5.20;;;1.45;;
67063;SDS011;58476;48.072;11.970;2022-09-03T06:33:45;6.00;;;1.50;;
67063;SDS011;58476;48.072;11.970;2022-09-03T06:36:12;6.50;;;1.50;;
67063;SDS011;58476;48.072;11.970;2022-09-03T06:38:42;5.60;;;1.70;;
67063;SDS011;58476;48.072;11.970;2022-09-03T06:41:09;3.00;;;1.38;;
67063;SDS011;58476;48.072;11.970;2022-09-03T06:43:38;5.30;;;1.50;;
67063;SDS011;58476;48.072;11.970;2022-09-03T06:46:12;2.70;;;1.48;;
67063;SDS011;58476;48.072;11.970;2022-09-03T06:48:41;2.65;;;1.40;;
67063;SDS011;58476;48.072;11.970;2022-09-03T06:51:07;10.10;;;1.95;;
67063;SDS011;58476;48.072;11.970;2022-09-03T06:53:48;5.57;;;1.67;;
67063;SDS011;58476;48.072;11.970;2022-09-03T06:56:16;3.40;;;1.40;;
67063;SDS011;58476;48.072;11.970;2022-09-03T06:58:44;3.05;;;1.40;;
67063;SDS011;58476;48.072;11.970;2022-09-03T07:01:11;2.50;;;1.55;;
67063;SDS011;58476;48.072;11.970;2022-09-03T07:03:45;1.85;;;1.27;;
67063;SDS011;58476;48.072;11.970;2022-09-03T07:06:13;2.42;;;1.38;;
67063;SDS011;58476;48.072;11.970;2022-09-03T07:08:40;3.55;;;1.40;;
67063;SDS011;58476;48.072;11.970;2022-09-03T07:11:06;2.05;;;1.40;;
67063;SDS011;58476;48.072;11.970;2022-09-03T07:13:43;1.63;;;1.23;;
67063;SDS011;58476;48.072;11.970;2022-09-03T07:16:11;4.15;;;1.60;;
67063;SDS011;58476;48.072;11.970;2022-09-03T07:18:41;3.88;;;1.48;;
67063;SDS011;58476;48.072;11.970;2022-09-03T07:21:09;10.10;;;1.70;;
67063;SDS011;58476;48.072;11.970;2022-09-03T07:23:36;4.43;;;1.50;;
67063;SDS011;58476;48.072;11.970;2022-09-03T07:26:04;6.32;;;1.77;;
67063;SDS011;58476;48.072;11.970;2022-09-03T07:28:34;10.65;;;1.63;;
67063;SDS011;58476;48.072;11.970;2022-09-03T07:31:11;9.32;;;1.80;;
67063;SDS011;58476;48.072;11.970;2022-09-03T07:33:42;3.53;;;1.60;;
67063;SDS011;58476;48.072;11.970;2022-09-03T07:36:12;3.70;;;1.80;;
67063;SDS011;58476;48.072;11.970;2022-09-03T07:38:40;7.28;;;1.77;;
67063;SDS011;58476;48.072;11.970;2022-09-03T07:41:07;3.42;;;1.90;;
67063;SDS011;58476;48.072;11.970;2022-09-03T07:43:34;2.03;;;1.80;;
67063;SDS011;58476;48.072;11.970;2022-09-03T07:48:30;3.30;;;1.80;;
67063;SDS011;58476;48.072;11.970;2022-09-03T07:50:58;7.63;;;2.25;;
67063;SDS011;58476;48.072;11.970;2022-09-03T07:53:24;7.00;;;1.92;;
67063;SDS011;58476;48.072;11.970;2022-09-03T07:55:49;7.13;;;2.38;;
67063;SDS011;58476;48.072;11.970;2022-09-03T07:58:15;8.25;;;2.40;;
67063;SDS011;58476;48.072;11.970;2022-09-03T08:00:40;9.80;;;2.60;;
67063;SDS011;58476;48.072;11.970;2022-09-03T08:03:05;7.55;;;2.40;;
67063;SDS011;58476;48.072;11.970;2022-09-03T08:05:31;5.22;;;2.70;;
67063;SDS011;58476;48.072;11.970;2022-09-03T08:08:03;7.13;;;2.47;;
67063;SDS011;58476;48.072;11.970;2022-09-03T08:10:33;3.10;;;1.95;;
67063;SDS011;58476;48.072;11.970;2022-09-03T08:12:59;4.05;;;2.08;;
67063;SDS011;58476;48.072;11.970;2022-09-03T08:15:25;5.53;;;2.10;;
67063;SDS011;58476;48.072;11.970;2022-09-03T08:17:51;2.88;;;2.10;;
67063;SDS011;58476;48.072;11.970;2022-09-03T08:20:17;2.85;;;2.35;;
67063;SDS011;58476;48.072;11.970;2022-09-03T08:22:42;2.78;;;1.90;;
67063;SDS011;58476;48.072;11.970;2022-09-03T08:25:08;4.32;;;2.58;;
67063;SDS011;58476;48.072;11.970;2022-09-03T08:27:33;9.10;;;2.20;;
67063;SDS011;58476;48.072;11.970;2022-09-03T08:29:59;7.18;;;2.13;;
67063;SDS011;58476;48.072;11.970;2022-09-03T08:32:24;3.45;;;2.00;;
67063;SDS011;58476;48.072;11.970;2022-09-03T08:34:50;2.63;;;2.00;;
67063;SDS011;58476;48.072;11.970;2022-09-03T08:37:15;4.13;;;2.10;;
67063;SDS011;58476;48.072;11.970;2022-09-03T08:39:41;4.30;;;1.85;;
67063;SDS011;58476;48.072;11.970;2022-09-03T08:45:00;4.97;;;2.15;;
67063;SDS011;58476;48.072;11.970;2022-09-03T08:52:50;4.20;;;1.98;;
67063;SDS011;58476;48.072;11.970;2022-09-03T08:58:27;4.15;;;1.60;;
67063;SDS011;58476;48.072;11.970;2022-09-03T09:01:02;7.75;;;1.90;;
67063;SDS011;58476;48.072;11.970;2022-09-03T09:14:49;6.50;;;2.58;;
67063;SDS011;58476;48.072;11.970;2022-09-03T09:17:30;7.88;;;2.10;;
67063;SDS011;58476;48.072;11.970;2022-09-03T09:20:38;4.22;;;1.70;;
67063;SDS011;58476;48.072;11.970;2022-09-03T09:23:10;9.65;;;2.20;;
67063;SDS011;58476;48.072;11.970;2022-09-03T09:25:44;6.75;;;1.80;;
67063;SDS011;58476;48.072;11.970;2022-09-03T09:28:15;7.05;;;1.88;;
67063;SDS011;58476;48.072;11.970;2022-09-03T09:30:44;5.07;;;1.70;;
67063;SDS011;58476;48.072;11.970;2022-09-03T09:33:11;11.75;;;2.55;;
67063;SDS011;58476;48.072;11.970;2022-09-03T09:35:36;4.60;;;1.88;;
67063;SDS011;58476;48.072;11.970;2022-09-03T09:38:01;8.38;;;1.90;;
67063;SDS011;58476;48.072;11.970;2022-09-03T09:40:31;9.20;;;1.85;;
67063;SDS011;58476;48.072;11.970;2022-09-03T09:43:07;9.52;;;2.08;;
67063;SDS011;58476;48.072;11.970;2022-09-03T09:45:42;8.32;;;2.05;;
67063;SDS011;58476;48.072;11.970;2022-09-03T09:50:47;10.70;;;2.35;;
67063;SDS011;58476;48.072;11.970;2022-09-03T09:53:15;26.75;;;6.47;;
67063;SDS011;58476;48.072;11.970;2022-09-03T09:56:00;72.95;;;20.17;;
67063;SDS011;58476;48.072;11.970;2022-09-03T09:58:26;202.75;;;92.45;;
67063;SDS011;58476;48.072;11.970;2022-09-03T10:01:11;148.40;;;68.85;;
67063;SDS011;58476;48.072;11.970;2022-09-03T10:03:51;95.95;;;41.38;;
67063;SDS011;58476;48.072;11.970;2022-09-03T10:06:18;83.57;;;34.83;;
67063;SDS011;58476;48.072;11.970;2022-09-03T10:08:48;314.55;;;81.32;;
67063;SDS011;58476;48.072;11.970;2022-09-03T10:11:13;258.65;;;77.00;;
67063;SDS011;58476;48.072;11.970;2022-09-03T10:13:41;191.57;;;71.05;;
67063;SDS011;58476;48.072;11.970;2022-09-03T10:16:17;323.67;;;152.07;;
67063;SDS011;58476;48.072;11.970;2022-09-03T10:18:48;272.65;;;122.72;;
67063;SDS011;58476;48.072;11.970;2022-09-03T10:26:58;120.47;;;53.15;;
67063;SDS011;58476;48.072;11.970;2022-09-03T10:29:23;126.22;;;51.80;;
67063;SDS011;58476;48.072;11.970;2022-09-03T10:31:52;107.63;;;46.22;;
67063;SDS011;58476;48.072;11.970;2022-09-03T10:34:31;88.78;;;43.50;;
67063;SDS011;58476;48.072;11.970;2022-09-03T10:37:26;103.28;;;43.08;;
67063;SDS011;58476;48.072;11.970;2022-09-03T10:42:35;71.85;;;34.28;;
67063;SDS011;58476;48.072;11.970;2022-09-03T10:51:03;77.30;;;32.10;;
67063;SDS011;58476;48.072;11.970;2022-09-03T10:53:37;67.55;;;29.92;;
67063;SDS011;58476;48.072;11.970;2022-09-03T10:56:10;66.53;;;26.55;;
67063;SDS011;58476;48.072;11.970;2022-09-03T11:06:46;41.35;;;17.92;;
67063;SDS011;58476;48.072;11.970;2022-09-03T11:12:04;37.00;;;17.70;;
67063;SDS011;58476;48.072;11.970;2022-09-03T11:14:37;42.28;;;16.40;;
67063;SDS011;58476;48.072;11.970;2022-09-03T11:17:08;33.83;;;15.85;;
67063;SDS011;58476;48.072;11.970;2022-09-03T11:19:47;35.70;;;16.25;;
67063;SDS011;58476;48.072;11.970;2022-09-03T11:22:17;31.25;;;15.18;;
67063;SDS011;58476;48.072;11.970;2022-09-03T11:24:45;32.55;;;15.68;;
67063;SDS011;58476;48.072;11.970;2022-09-03T11:27:22;33.55;;;14.88;;
67063;SDS011;58476;48.072;11.970;2022-09-03T11:30:02;33.80;;;15.13;;
67063;SDS011;58476;48.072;11.970;2022-09-03T11:32:38;31.90;;;14.40;;
67063;SDS011;58476;48.072;11.970;2022-09-03T11:35:15;26.77;;;13.90;;
67063;SDS011;58476;48.072;11.970;2022-09-03T11:37:53;32.30;;;14.68;;
67063;SDS011;58476;48.072;11.970;2022-09-03T11:40:53;27.95;;;14.40;;
67063;SDS011;58476;48.072;11.970;2022-09-03T11:45:47;27.55;;;13.30;;
67063;SDS011;58476;48.072;11.970;2022-09-03T11:51:03;27.85;;;13.02;;
67063;SDS011;58476;48.072;11.970;2022-09-03T11:53:32;29.83;;;14.05;;
67063;SDS011;58476;48.072;11.970;2022-09-03T11:56:00;29.13;;;13.23;;
67063;SDS011;58476;48.072;11.970;2022-09-03T11:58:41;26.60;;;12.38;;
67063;SDS011;58476;48.072;11.970;2022-09-03T12:01:10;22.58;;;12.40;;
67063;SDS011;58476;48.072;11.970;2022-09-03T12:03:44;25.95;;;12.32;;
67063;SDS011;58476;48.072;11.970;2022-09-03T12:06:28;25.67;;;11.63;;
67063;SDS011;58476;48.072;11.970;2022-09-03T12:12:29;24.60;;;11.52;;
67063;SDS011;58476;48.072;11.970;2022-09-03T12:15:09;22.98;;;11.25;;
67063;SDS011;58476;48.072;11.970;2022-09-03T12:17:52;24.10;;;10.48;;
67063;SDS011;58476;48.072;11.970;2022-09-03T12:20:19;20.73;;;11.07;;
67063;SDS011;58476;48.072;11.970;2022-09-03T12:22:51;28.50;;;11.13;;
67063;SDS011;58476;48.072;11.970;2022-09-03T12:25:16;22.30;;;10.60;;
67063;SDS011;58476;48.072;11.970;2022-09-03T12:27:43;23.77;;;10.85;;
67063;SDS011;58476;48.072;11.970;2022-09-03T12:30:14;21.60;;;9.82;;
67063;SDS011;58476;48.072;11.970;2022-09-03T12:32:41;20.48;;;10.55;;
67063;SDS011;58476;48.072;11.970;2022-09-03T12:35:14;20.05;;;11.02;;
67063;SDS011;58476;48.072;11.970;2022-09-03T12:37:42;23.17;;;10.23;;
67063;SDS011;58476;48.072;11.970;2022-09-03T12:40:15;19.42;;;9.70;;
67063;SDS011;58476;48.072;11.970;2022-09-03T12:42:46;20.55;;;10.00;;
67063;SDS011;58476;48.072;11.970;2022-09-03T12:45:11;20.95;;;9.85;;
67063;SDS011;58476;48.072;11.970;2022-09-03T12:47:38;16.95;;;9.82;;
67063;SDS011;58476;48.072;11.970;2022-09-03T12:50:11;14.90;;;8.85;;
67063;SDS011;58476;48.072;11.970;2022-09-03T12:52:48;18.83;;;9.80;;
67063;SDS011;58476;48.072;11.970;2022-09-03T12:55:33;19.38;;;9.15;;
67063;SDS011;58476;48.072;11.970;2022-09-03T13:00:30;18.40;;;9.32;;
67063;SDS011;58476;48.072;11.970;2022-09-03T13:03:09;18.08;;;9.07;;
67063;SDS011;58476;48.072;11.970;2022-09-03T13:05:44;15.10;;;8.48;;
67063;SDS011;58476;48.072;11.970;2022-09-03T13:08:14;14.98;;;8.18;;
67063;SDS011;58476;48.072;11.970;2022-09-03T13:10:48;13.65;;;8.00;;
67063;SDS011;58476;48.072;11.970;2022-09-03T13:16:12;19.30;;;8.23;;
67063;SDS011;58476;48.072;11.970;2022-09-03T13:30:11;14.25;;;7.70;;
67063;SDS011;58476;48.072;11.970;2022-09-03T13:32:41;12.32;;;7.00;;
67063;SDS011;58476;48.072;11.970;2022-09-03T13:35:26;10.77;;;6.53;;
67063;SDS011;58476;48.072;11.970;2022-09-03T13:40:51;10.98;;;6.35;;
67063;SDS011;58476;48.072;11.970;2022-09-03T13:43:27;16.05;;;6.75;;
67063;SDS011;58476;48.072;11.970;2022-09-03T13:45:59;13.38;;;6.45;;
67063;SDS011;58476;48.072;11.970;2022-09-03T13:56:34;12.23;;;6.65;;
67063;SDS011;58476;48.072;11.970;2022-09-03T13:59:05;10.88;;;5.63;;
67063;SDS011;58476;48.072;11.970;2022-09-03T14:07:20;10.05;;;5.47;;
67063;SDS011;58476;48.072;11.970;2022-09-03T14:12:50;10.38;;;6.10;;
67063;SDS011;58476;48.072;11.970;2022-09-03T14:15:21;9.23;;;5.72;;
67063;SDS011;58476;48.072;11.970;2022-09-03T14:17:52;9.80;;;5.07;;
67063;SDS011;58476;48.072;11.970;2022-09-03T14:25:55;9.48;;;5.40;;
67063;SDS011;58476;48.072;11.970;2022-09-03T14:28:30;9.75;;;5.20;;
67063;SDS011;58476;48.072;11.970;2022-09-03T14:36:40;9.93;;;5.43;;
67063;SDS011;58476;48.072;11.970;2022-09-03T14:39:33;9.02;;;4.93;;
67063;SDS011;58476;48.072;11.970;2022-09-03T14:47:20;8.48;;;4.53;;
67063;SDS011;58476;48.072;11.970;2022-09-03T14:52:41;9.05;;;5.10;;
67063;SDS011;58476;48.072;11.970;2022-09-03T15:08:32;8.37;;;4.30;;
67063;SDS011;58476;48.072;11.970;2022-09-03T15:11:22;11.88;;;4.47;;
67063;SDS011;58476;48.072;11.970;2022-09-03T15:13:51;12.57;;;4.55;;
67063;SDS011;58476;48.072;11.970;2022-09-03T15:22:10;15.93;;;4.22;;
67063;SDS011;58476;48.072;11.970;2022-09-03T15:27:41;15.10;;;3.80;;
67063;SDS011;58476;48.072;11.970;2022-09-03T15:30:33;9.93;;;3.75;;
67063;SDS011;58476;48.072;11.970;2022-09-03T15:33:11;8.50;;;3.70;;
67063;SDS011;58476;48.072;11.970;2022-09-03T15:38:24;5.63;;;3.35;;
67063;SDS011;58476;48.072;11.970;2022-09-03T15:40:56;17.15;;;3.15;;
67063;SDS011;58476;48.072;11.970;2022-09-03T15:43:27;13.02;;;3.58;;
67063;SDS011;58476;48.072;11.970;2022-09-03T15:48:50;11.32;;;3.38;;
67063;SDS011;58476;48.072;11.970;2022-09-03T15:51:26;7.50;;;2.90;;
67063;SDS011;58476;48.072;11.970;2022-09-03T15:53:59;10.15;;;3.30;;
67063;SDS011;58476;48.072;11.970;2022-09-03T15:56:39;9.68;;;3.00;;
67063;SDS011;58476;48.072;11.970;2022-09-03T15:59:14;16.35;;;3.55;;
67063;SDS011;58476;48.072;11.970;2022-09-03T16:10:12;6.53;;;2.67;;
67063;SDS011;58476;48.072;11.970;2022-09-03T16:15:36;7.78;;;2.42;;
67063;SDS011;58476;48.072;11.970;2022-09-03T16:23:29;8.32;;;2.40;;
67063;SDS011;58476;48.072;11.970;2022-09-03T16:26:19;6.00;;;2.13;;
67063;SDS011;58476;48.072;11.970;2022-09-03T16:28:46;8.82;;;2.50;;
67063;SDS011;58476;48.072;11.970;2022-09-03T16:31:37;12.82;;;2.20;;
67063;SDS011;58476;48.072;11.970;2022-09-03T16:34:57;11.02;;;2.50;;
67063;SDS011;58476;48.072;11.970;2022-09-03T16:37:08;4.35;;;2.20;;
67063;SDS011;58476;48.072;11.970;2022-09-03T16:44:51;5.82;;;2.05;;
67063;SDS011;58476;48.072;11.970;2022-09-03T16:52:40;4.22;;;1.73;;
67063;SDS011;58476;48.072;11.970;2022-09-03T16:57:58;6.00;;;2.83;;
67063;SDS011;58476;48.072;11.970;2022-09-03T17:03:16;4.57;;;1.90;;
67063;SDS011;58476;48.072;11.970;2022-09-03T17:11:36;5.32;;;1.98;;
67063;SDS011;58476;48.072;11.970;2022-09-03T17:24:37;7.28;;;1.70;;
67063;SDS011;58476;48.072;11.970;2022-09-03T17:32:41;13.32;;;1.60;;
67063;SDS011;58476;48.072;11.970;2022-09-03T17:41:03;9.13;;;1.48;;
67063;SDS011;58476;48.072;11.970;2022-09-03T17:46:44;6.45;;;1.70;;
67063;SDS011;58476;48.072;11.970;2022-09-03T17:49:25;22.08;;;2.55;;
67063;SDS011;58476;48.072;11.970;2022-09-03T17:51:59;9.02;;;2.00;;
67063;SDS011;58476;48.072;11.970;2022-09-03T17:54:42;8.38;;;1.70;;
67063;SDS011;58476;48.072;11.970;2022-09-03T17:57:16;13.68;;;2.40;;
67063;SDS011;58476;48.072;11.970;2022-09-03T18:02:42;6.60;;;1.38;;
67063;SDS011;58476;48.072;11.970;2022-09-03T18:05:22;9.68;;;1.63;;
67063;SDS011;58476;48.072;11.970;2022-09-03T18:07:50;8.68;;;2.22;;
67063;SDS011;58476;48.072;11.970;2022-09-03T18:16:10;9.95;;;1.90;;
67063;SDS011;58476;48.072;11.970;2022-09-03T18:18:45;8.82;;;1.70;;
67063;SDS011;58476;48.072;11.970;2022-09-03T18:21:22;5.40;;;1.60;;
67063;SDS011;58476;48.072;11.970;2022-09-03T18:24:00;8.05;;;1.75;;
67063;SDS011;58476;48.072;11.970;2022-09-03T18:26:36;8.45;;;1.52;;
67063;SDS011;58476;48.072;11.970;2022-09-03T18:29:12;6.07;;;1.88;;
67063;SDS011;58476;48.072;11.970;2022-09-03T18:31:44;7.45;;;1.85;;
67063;SDS011;58476;48.072;11.970;2022-09-03T18:34:10;4.80;;;1.65;;
67063;SDS011;58476;48.072;11.970;2022-09-03T18:36:36;9.60;;;1.95;;
67063;SDS011;58476;48.072;11.970;2022-09-03T18:39:15;8.02;;;1.48;;
67063;SDS011;58476;48.072;11.970;2022-09-03T18:47:30;13.50;;;2.00;;
67063;SDS011;58476;48.072;11.970;2022-09-03T18:58:27;9.00;;;1.60;;
67063;SDS011;58476;48.072;11.970;2022-09-03T19:14:50;14.35;;;1.90;;
67063;SDS011;58476;48.072;11.970;2022-09-03T19:17:37;8.10;;;1.80;;
67063;SDS011;58476;48.072;11.970;2022-09-03T19:22:53;11.10;;;1.80;;
67063;SDS011;58476;48.072;11.970;2022-09-03T19:25:20;7.78;;;1.65;;
67063;SDS011;58476;48.072;11.970;2022-09-03T19:27:53;6.85;;;1.80;;
67063;SDS011;58476;48.072;11.970;2022-09-03T19:31:09;7.57;;;2.30;;
67063;SDS011;58476;48.072;11.970;2022-09-03T19:33:17;10.52;;;1.92;;
67063;SDS011;58476;48.072;11.970;2022-09-03T19:42:12;16.52;;;2.13;;
67063;SDS011;58476;48.072;11.970;2022-09-03T19:47:39;5.90;;;1.70;;
67063;SDS011;58476;48.072;11.970;2022-09-03T19:55:29;4.43;;;1.50;;